Time;durP1;ratioP1;P1;durP2;ratioP2;P2;SDS_P1;SDS_P2;PMS_P1;PMS_P2;Temp;Humidity;BMP_temperature;BMP_pressure;BME280_temperature;BME280_humidity;BME280_pressure;Samples;Min_cycle;Max_cycle;Signal;HPM_P1;HPM_P2
2022/03/15 00:01:03;;;;;;;27.23;18.02;;;;;;;8.38;69.86;102682.84;5095742;28;20031;-73
2022/03/15 00:03:30;;;;;;;25.98;19.25;;;;;;;8.35;70.10;102688.22;5106053;28;20035;-73
2022/03/15 00:05:55;;;;;;;25.02;18.00;;;;;;;8.36;69.82;102687.31;5099834;28;20046;-73
2022/03/15 00:08:22;;;;;;;25.13;18.15;;;;;;;8.31;69.76;102684.78;5094319;28;20048;-72
2022/03/15 00:10:49;;;;;;;24.88;18.65;;;;;;;8.16;70.08;102669.25;5114165;28;20031;-73
2022/03/15 00:13:15;;;;;;;29.20;18.05;;;;;;;8.39;69.74;102681.97;5079645;28;20497;-74
2022/03/15 00:15:42;;;;;;;27.98;18.25;;;;;;;8.29;70.01;102683.94;5075245;28;20028;-73
2022/03/15 00:18:09;;;;;;;29.25;18.98;;;;;;;8.27;70.53;102680.47;5098490;28;20059;-73
2022/03/15 00:20:36;;;;;;;29.02;16.95;;;;;;;8.32;69.87;102677.69;5101275;28;20026;-73
2022/03/15 00:23:01;;;;;;;26.08;17.40;;;;;;;8.31;69.88;102675.94;5084464;28;20032;-73
2022/03/15 00:25:30;;;;;;;29.55;17.70;;;;;;;8.29;70.06;102667.16;5079806;28;20028;-72
2022/03/15 00:27:58;;;;;;;29.65;17.63;;;;;;;8.27;70.09;102671.66;5094429;28;20542;-73
2022/03/15 00:30:27;;;;;;;28.42;17.90;;;;;;;8.18;70.15;102667.44;5113191;28;20050;-72
2022/03/15 00:32:52;;;;;;;25.50;16.83;;;;;;;8.27;70.00;102672.50;5095470;28;20055;-73
2022/03/15 00:35:19;;;;;;;23.75;18.70;;;;;;;8.25;69.86;102673.44;5082298;28;20111;-73
2022/03/15 00:37:54;;;;;;;29.02;18.00;;;;;;;8.32;69.67;102677.69;5101177;28;20425;-73
2022/03/15 00:40:22;;;;;;;30.92;18.50;;;;;;;8.13;70.25;102677.25;5094807;28;20038;-73
2022/03/15 00:42:53;;;;;;;27.65;17.30;;;;;;;8.20;70.22;102671.75;5105541;28;20110;-73
2022/03/15 00:45:27;;;;;;;25.63;16.70;;;;;;;8.22;70.20;102679.69;5093150;28;20486;-73
2022/03/15 00:47:54;;;;;;;26.20;17.08;;;;;;;8.06;70.63;102668.59;5101128;28;20037;-73
2022/03/15 00:50:21;;;;;;;26.38;17.83;;;;;;;8.18;70.31;102670.09;5113451;28;20081;-73
2022/03/15 00:52:48;;;;;;;26.45;16.75;;;;;;;8.09;70.51;102671.16;5079875;28;20024;-73
2022/03/15 00:55:13;;;;;;;26.42;16.92;;;;;;;8.08;70.50;102656.16;5088257;28;20557;-73
2022/03/15 00:57:39;;;;;;;22.90;17.23;;;;;;;8.02;70.92;102660.72;5099513;28;20039;-73
2022/03/15 01:00:09;;;;;;;22.65;16.55;;;;;;;8.13;70.60;102662.22;5089825;28;20028;-72
2022/03/15 01:02:37;;;;;;;25.92;17.52;;;;;;;8.03;71.10;102654.50;5109568;28;20027;-72
2022/03/15 01:05:04;;;;;;;23.38;17.67;;;;;;;7.97;71.45;102659.06;5099405;28;20430;-73
2022/03/15 01:07:30;;;;;;;23.83;17.98;;;;;;;7.99;71.21;102659.03;5074557;28;20123;-72
2022/03/15 01:09:55;;;;;;;24.88;16.48;;;;;;;8.04;71.13;102662.44;5083329;28;20148;-73
2022/03/15 01:12:21;;;;;;;30.98;17.30;;;;;;;8.02;71.54;102671.34;5064182;28;20039;-72
2022/03/15 01:14:46;;;;;;;24.48;17.73;;;;;;;8.00;71.31;102673.13;5094710;28;20111;-72
2022/03/15 01:17:12;;;;;;;22.73;17.80;;;;;;;7.97;71.24;102663.47;5109500;28;20031;-72
2022/03/15 01:19:39;;;;;;;29.55;17.48;;;;;;;7.96;71.30;102670.56;5112965;28;20023;-72
2022/03/15 01:22:04;;;;;;;26.90;17.55;;;;;;;8.00;71.38;102666.09;5085646;28;20032;-73
2022/03/15 01:24:30;;;;;;;25.67;16.42;;;;;;;7.92;71.02;102663.59;5092297;28;20099;-72
2022/03/15 01:26:58;;;;;;;25.80;17.45;;;;;;;7.86;71.47;102660.22;5091629;28;20122;-73
2022/03/15 01:29:26;;;;;;;26.70;17.17;;;;;;;7.86;71.59;102652.28;5092447;28;20032;-73
2022/03/15 01:31:52;;;;;;;28.55;17.33;;;;;;;7.82;71.59;102654.09;5091095;28;20032;-72
2022/03/15 01:34:17;;;;;;;24.98;17.52;;;;;;;7.88;71.55;102639.84;5092410;28;20378;-72
2022/03/15 01:36:42;;;;;;;21.95;16.92;;;;;;;7.85;71.53;102640.81;5094247;28;20106;-73
2022/03/15 01:39:08;;;;;;;24.95;16.40;;;;;;;7.84;71.84;102638.19;5093589;28;20062;-72
2022/03/15 01:41:35;;;;;;;24.55;17.17;;;;;;;7.76;72.02;102638.34;5103375;28;20145;-73
2022/03/15 01:44:04;;;;;;;27.35;16.70;;;;;;;7.85;71.85;102631.97;5074949;28;20016;-73
2022/03/15 01:46:30;;;;;;;22.50;15.95;;;;;;;7.87;71.50;102628.38;5102486;28;20023;-72
2022/03/15 01:48:56;;;;;;;21.45;15.38;;;;;;;7.83;71.59;102626.72;5091722;28;20031;-72
2022/03/15 01:51:21;;;;;;;19.33;14.75;;;;;;;7.78;71.81;102631.25;5111353;28;20027;-73
2022/03/15 01:53:47;;;;;;;24.05;16.77;;;;;;;7.79;71.86;102629.47;5076742;28;20035;-72
2022/03/15 01:56:14;;;;;;;20.90;15.45;;;;;;;7.79;71.68;102619.72;5111631;28;20108;-72
2022/03/15 01:58:39;;;;;;;24.90;15.60;;;;;;;7.84;71.19;102623.16;5093873;28;20035;-72
2022/03/15 02:01:05;;;;;;;29.23;17.20;;;;;;;7.83;71.46;102618.78;5089688;28;20032;-73
2022/03/15 02:03:32;;;;;;;23.80;15.65;;;;;;;7.86;71.17;102616.06;5079309;28;20108;-73
2022/03/15 02:05:58;;;;;;;23.58;15.50;;;;;;;7.77;71.23;102621.56;5111919;28;20102;-72
2022/03/15 02:08:24;;;;;;;20.30;15.32;;;;;;;7.86;71.32;102628.44;5111577;28;20578;-73
2022/03/15 02:10:49;;;;;;;25.35;16.35;;;;;;;7.88;70.99;102629.25;5095531;28;20114;-72
2022/03/15 02:13:16;;;;;;;20.33;15.77;;;;;;;7.86;71.14;102626.66;5083580;28;20119;-73
2022/03/15 02:15:41;;;;;;;20.92;15.45;;;;;;;7.80;71.27;102625.94;5079314;28;20093;-72
2022/03/15 02:18:07;;;;;;;21.38;15.68;;;;;;;7.79;71.05;102617.09;5104088;28;20498;-73
2022/03/15 02:20:32;;;;;;;23.45;15.77;;;;;;;7.83;70.86;102608.19;5081249;28;20043;-72
2022/03/15 02:22:58;;;;;;;23.35;15.10;;;;;;;7.84;71.39;102601.97;5099947;28;20016;-72
2022/03/15 02:25:24;;;;;;;21.50;15.10;;;;;;;7.86;71.08;102599.28;5090952;28;20078;-73
2022/03/15 02:27:51;;;;;;;25.20;15.68;;;;;;;7.82;70.40;102595.81;5091556;28;20528;-72
2022/03/15 02:30:17;;;;;;;22.80;15.65;;;;;;;7.82;70.67;102601.13;5055974;28;20024;-73
2022/03/15 02:32:47;;;;;;;21.98;15.50;;;;;;;7.90;69.76;102598.31;5098449;28;20028;-72
2022/03/15 02:35:16;;;;;;;21.35;14.73;;;;;;;7.91;69.59;102594.75;5073000;28;20039;-73
2022/03/15 02:37:44;;;;;;;21.92;15.13;;;;;;;7.88;69.40;102595.72;5091565;28;20031;-73
2022/03/15 02:40:10;;;;;;;27.13;15.30;;;;;;;7.89;69.25;102591.28;5110907;28;20027;-72
2022/03/15 02:42:35;;;;;;;20.05;14.63;;;;;;;7.89;69.58;102589.50;5109298;28;20027;-73
2022/03/15 02:45:01;;;;;;;24.90;15.07;;;;;;;7.92;69.05;102591.19;5072379;28;20107;-73
2022/03/15 02:47:27;;;;;;;21.00;15.27;;;;;;;7.86;69.50;102588.69;5108252;28;20033;-72
2022/03/15 02:49:53;;;;;;;24.42;14.35;;;;;;;7.93;69.27;102580.56;5092951;28;20035;-72
2022/03/15 02:52:19;;;;;;;20.85;14.00;;;;;;;7.92;68.94;102578.81;5083852;28;20940;-72
2022/03/15 02:54:45;;;;;;;23.42;15.52;;;;;;;7.92;69.01;102583.25;5072859;28;20039;-72
2022/03/15 02:57:10;;;;;;;21.67;14.55;;;;;;;7.96;69.15;102571.66;5072623;28;20055;-72
2022/03/15 02:59:36;;;;;;;21.05;14.45;;;;;;;7.98;69.13;102569.84;5075287;28;20066;-72
2022/03/15 03:02:03;;;;;;;23.25;13.73;;;;;;;7.89;69.09;102556.84;5074667;28;20028;-72
2022/03/15 03:04:28;;;;;;;22.10;14.05;;;;;;;7.90;69.08;102563.88;5090553;28;20073;-72
2022/03/15 03:06:54;;;;;;;21.05;14.13;;;;;;;7.97;69.17;102555.75;5087894;28;20028;-72
2022/03/15 03:09:20;;;;;;;17.90;13.85;;;;;;;7.88;69.82;102544.47;5076019;28;20048;-72
2022/03/15 03:11:45;;;;;;;18.65;13.73;;;;;;;7.92;69.23;102541.72;5110596;28;20065;-72
2022/03/15 03:14:13;;;;;;;24.00;15.43;;;;;;;7.85;68.93;102541.91;5098491;28;20028;-72
2022/03/15 03:16:40;;;;;;;21.67;13.85;;;;;;;7.81;68.77;102537.59;5099431;28;20046;-72
2022/03/15 03:19:08;;;;;;;23.33;14.05;;;;;;;7.80;68.97;102542.03;5097469;28;20490;-73
2022/03/15 03:21:36;;;;;;;19.83;13.88;;;;;;;7.64;69.38;102515.03;5095773;28;20016;-72
2022/03/15 03:24:04;;;;;;;23.70;13.60;;;;;;;7.73;69.53;102543.06;5092469;28;20032;-72
2022/03/15 03:26:31;;;;;;;26.83;14.82;;;;;;;7.75;68.79;102538.63;5090484;28;20077;-72
2022/03/15 03:28:57;;;;;;;19.70;14.52;;;;;;;7.71;69.49;102531.66;5085299;28;20387;-72
2022/03/15 03:31:23;;;;;;;19.55;14.32;;;;;;;7.76;69.41;102529.75;5055430;28;20016;-73
2022/03/15 03:33:49;;;;;;;22.27;14.98;;;;;;;7.72;69.22;102533.41;5094295;28;20705;-73
2022/03/15 03:36:15;;;;;;;19.38;14.63;;;;;;;7.65;69.90;102526.53;5072659;28;20039;-72
2022/03/15 03:38:41;;;;;;;21.05;14.13;;;;;;;7.62;70.13;102535.41;5095657;28;20031;-72
2022/03/15 03:41:07;;;;;;;21.80;13.35;;;;;;;7.62;70.39;102530.09;5092996;28;20035;-72
2022/03/15 03:43:33;;;;;;;25.45;13.90;;;;;;;7.62;69.36;102535.41;5086060;28;20405;-73
2022/03/15 03:45:58;;;;;;;18.55;13.50;;;;;;;7.63;69.91;102533.63;5110303;28;20039;-72
2022/03/15 03:48:25;;;;;;;22.27;14.00;;;;;;;7.59;69.46;102516.03;5104767;28;20047;-72
2022/03/15 03:50:51;;;;;;;20.25;13.35;;;;;;;7.68;69.24;102532.59;5099263;28;20373;-72
2022/03/15 03:53:17;;;;;;;21.90;13.93;;;;;;;7.69;69.41;102534.34;5101628;28;20059;-72
2022/03/15 03:55:44;;;;;;;21.45;14.20;;;;;;;7.67;69.39;102522.91;5092119;28;20055;-72
2022/03/15 03:58:10;;;;;;;20.17;13.57;;;;;;;7.65;70.03;102526.53;5110756;28;20038;-72
2022/03/15 04:00:39;;;;;;;21.25;13.70;;;;;;;7.67;69.87;102522.03;5100685;28;20390;-73
2022/03/15 04:03:06;;;;;;;19.00;14.05;;;;;;;7.64;70.13;102517.69;5097917;28;20462;-72
2022/03/15 04:05:35;;;;;;;21.52;14.55;;;;;;;7.58;69.81;102514.31;5110273;28;20028;-73
2022/03/15 04:08:00;;;;;;;19.90;13.93;;;;;;;7.60;70.29;102526.63;5084386;28;20542;-73
2022/03/15 04:10:30;;;;;;;18.05;13.05;;;;;;;7.62;70.17;102530.09;5086549;28;20128;-72
2022/03/15 04:12:56;;;;;;;17.23;12.88;;;;;;;7.63;70.24;102521.25;5090205;28;20114;-73
2022/03/15 04:15:24;;;;;;;18.90;13.27;;;;;;;7.54;70.29;102539.13;5075972;28;20119;-72
2022/03/15 04:17:51;;;;;;;20.85;13.15;;;;;;;7.58;70.33;102530.19;5072464;28;20369;-72
2022/03/15 04:20:17;;;;;;;24.35;12.85;;;;;;;7.60;70.26;102531.91;5077777;28;20028;-72
2022/03/15 04:22:43;;;;;;;20.55;13.45;;;;;;;7.51;70.39;102526.84;5093627;28;20024;-72
2022/03/15 04:25:09;;;;;;;20.25;14.13;;;;;;;7.47;70.44;102544.56;5091462;28;20035;-72
2022/03/15 04:27:35;;;;;;;17.45;12.27;;;;;;;7.45;70.58;102532.28;5082220;28;20038;-72
2022/03/15 04:30:01;;;;;;;23.35;12.70;;;;;;;7.49;70.20;102529.50;5083811;28;20085;-73
2022/03/15 04:32:27;;;;;;;17.60;12.98;;;;;;;7.46;70.29;102540.16;5081937;28;20401;-72
2022/03/15 04:34:53;;;;;;;20.55;13.48;;;;;;;7.34;70.62;102524.56;5089104;28;20032;-72
2022/03/15 04:37:21;;;;;;;18.60;12.52;;;;;;;7.44;70.46;102539.34;5076892;28;20063;-72
2022/03/15 04:39:47;;;;;;;20.23;13.48;;;;;;;7.43;70.05;102540.22;5072049;28;20487;-72
2022/03/15 04:42:13;;;;;;;22.30;13.25;;;;;;;7.43;70.26;102529.66;5076274;28;20020;-72
2022/03/15 04:44:38;;;;;;;24.17;14.57;;;;;;;7.45;70.78;102527.84;5075837;28;20028;-72
2022/03/15 04:47:04;;;;;;;20.30;13.77;;;;;;;7.38;70.94;102526.25;5073807;28;20369;-72
2022/03/15 04:49:31;;;;;;;24.60;14.18;;;;;;;7.43;69.97;102526.13;5054534;28;20060;-71
2022/03/15 04:51:56;;;;;;;18.20;12.75;;;;;;;7.39;70.52;102519.19;5071538;28;20036;-73
2022/03/15 04:54:22;;;;;;;19.98;13.85;;;;;;;7.39;70.36;102522.69;5074891;28;20028;-72
2022/03/15 04:56:47;;;;;;;22.17;13.13;;;;;;;7.36;70.45;102524.53;5083705;28;20058;-72
2022/03/15 04:59:13;;;;;;;20.38;12.60;;;;;;;7.45;70.31;102524.34;5085208;28;20403;-72
2022/03/15 05:01:39;;;;;;;18.67;13.40;;;;;;;7.43;69.72;102512.91;5084778;28;20024;-72
2022/03/15 05:04:06;;;;;;;21.42;13.80;;;;;;;7.44;69.69;102511.97;5087291;28;20028;-72
2022/03/15 05:06:33;;;;;;;18.45;12.77;;;;;;;7.52;69.77;102510.03;5085294;28;20051;-72
2022/03/15 05:09:03;;;;;;;25.65;13.10;;;;;;;7.50;69.42;102503.94;5084955;28;20048;-72
2022/03/15 05:11:32;;;;;;;20.25;13.48;;;;;;;7.46;69.86;102497.81;5104331;28;20067;-72
2022/03/15 05:13:58;;;;;;;20.23;12.82;;;;;;;7.36;70.20;102498.06;5112988;28;20027;-72
2022/03/15 05:16:24;;;;;;;20.00;12.40;;;;;;;7.34;70.50;102499.88;5094016;28;20483;-72
2022/03/15 05:18:53;;;;;;;18.65;13.65;;;;;;;7.37;70.72;102497.16;5094672;28;20402;-72
2022/03/15 05:21:20;;;;;;;22.23;14.93;;;;;;;7.36;70.56;102509.53;5104675;28;20028;-72
2022/03/15 05:23:47;;;;;;;19.77;12.50;;;;;;;7.24;70.87;102500.09;5094703;28;20031;-72
2022/03/15 05:26:15;;;;;;;17.85;12.70;;;;;;;7.26;70.79;102508.88;5097322;28;20363;-72
2022/03/15 05:28:41;;;;;;;24.25;14.05;;;;;;;7.31;70.33;102508.75;5092509;28;20038;-72
2022/03/15 05:31:08;;;;;;;21.20;12.65;;;;;;;7.37;69.87;102500.66;5091886;28;20035;-73
2022/03/15 05:33:37;;;;;;;18.52;12.40;;;;;;;7.45;69.80;102497.84;5101044;28;20104;-72
2022/03/15 05:36:03;;;;;;;22.35;12.98;;;;;;;7.41;70.29;102493.53;5094939;28;20028;-72
2022/03/15 05:38:28;;;;;;;19.20;12.90;;;;;;;7.41;70.43;102494.41;5111604;28;20032;-72
2022/03/15 05:40:54;;;;;;;21.38;11.93;;;;;;;7.36;70.33;102485.72;5091515;28;20081;-72
2022/03/15 05:43:20;;;;;;;21.75;12.23;;;;;;;7.31;70.53;102474.34;5102423;28;20050;-72
2022/03/15 05:45:46;;;;;;;22.95;13.10;;;;;;;7.40;69.88;102475.91;5091460;28;20085;-72
2022/03/15 05:48:12;;;;;;;22.95;12.63;;;;;;;7.26;70.65;102473.56;5095025;28;20027;-72
2022/03/15 05:50:37;;;;;;;24.10;12.35;;;;;;;7.33;70.30;102471.69;5075285;28;20035;-72
2022/03/15 05:53:05;;;;;;;20.92;11.73;;;;;;;7.39;69.98;102476.81;5076420;28;20028;-72
2022/03/15 05:55:36;;;;;;;15.23;11.60;;;;;;;7.38;70.52;102456.53;5103095;28;20119;-72
2022/03/15 05:58:03;;;;;;;25.58;12.55;;;;;;;7.46;70.49;102475.75;5083575;28;20039;-72
2022/03/15 06:00:30;;;;;;;21.27;12.80;;;;;;;7.42;70.76;102476.75;5100066;28;20028;-72
2022/03/15 06:02:56;;;;;;;18.90;12.82;;;;;;;7.38;70.73;102475.97;5096326;28;20035;-73
2022/03/15 06:05:22;;;;;;;20.83;12.98;;;;;;;7.20;70.95;102444.63;5085494;28;20032;-72
2022/03/15 06:07:52;;;;;;;19.60;12.52;;;;;;;7.37;70.41;102471.56;5084293;28;20024;-71
2022/03/15 06:10:23;;;;;;;18.52;13.10;;;;;;;7.47;70.26;102474.84;5078188;28;20130;-72
2022/03/15 06:12:50;;;;;;;23.50;13.48;;;;;;;7.44;70.43;102475.81;5093856;28;20144;-72
2022/03/15 06:15:16;;;;;;;18.52;12.75;;;;;;;7.44;70.42;102464.34;5092599;28;20042;-72
2022/03/15 06:17:56;;;;;;;20.92;12.88;;;;;;;7.53;70.63;102474.72;5093164;28;20093;-72
2022/03/15 06:20:22;;;;;;;19.83;13.23;;;;;;;7.46;71.03;102471.34;5091064;28;20069;-72
2022/03/15 06:22:48;;;;;;;20.35;13.30;;;;;;;7.55;70.08;102466.72;5073355;28;20497;-72
2022/03/15 06:25:14;;;;;;;19.77;13.00;;;;;;;7.56;70.21;102458.75;5073003;28;20032;-72
2022/03/15 06:27:39;;;;;;;19.88;13.15;;;;;;;7.44;70.41;102454.63;5091114;28;20063;-72
2022/03/15 06:30:10;;;;;;;19.38;13.18;;;;;;;7.41;70.62;102465.31;5072322;28;20458;-72
2022/03/15 06:32:39;;;;;;;17.52;13.45;;;;;;;7.45;70.37;102460.81;5091018;28;20073;-72
2022/03/15 06:35:09;;;;;;;21.48;13.18;;;;;;;7.43;70.34;102473.19;5099800;28;20039;-72
2022/03/15 06:37:42;;;;;;;23.48;14.20;;;;;;;7.39;70.31;102460.94;5094856;28;20031;-72
2022/03/15 06:40:09;;;;;;;20.95;13.63;;;;;;;7.35;70.42;102459.25;5111140;28;20024;-72
2022/03/15 06:42:40;;;;;;;20.88;13.05;;;;;;;7.33;70.36;102455.81;5082934;28;20016;-72
2022/03/15 06:45:10;;;;;;;18.40;13.15;;;;;;;7.42;70.68;102464.38;5095033;28;20494;-72
2022/03/15 06:47:37;;;;;;;21.75;14.43;;;;;;;7.42;70.24;102458.22;5097626;28;20031;-72
2022/03/15 06:50:06;;;;;;;21.88;13.65;;;;;;;7.40;70.56;102460.03;5105714;28;20027;-72
2022/03/15 06:52:32;;;;;;;22.48;14.07;;;;;;;7.44;70.05;102449.34;5095243;28;20497;-73
2022/03/15 06:54:58;;;;;;;23.33;14.38;;;;;;;7.40;70.08;102450.31;5104008;28;20110;-73
2022/03/15 06:57:23;;;;;;;21.20;13.68;;;;;;;7.39;70.01;102445.94;5081760;28;20414;-72
2022/03/15 06:59:48;;;;;;;20.65;13.50;;;;;;;7.37;70.32;102445.09;5094405;28;20027;-73
2022/03/15 07:02:14;;;;;;;21.23;14.20;;;;;;;7.38;69.88;102448.59;5055152;28;20024;-73
2022/03/15 07:04:40;;;;;;;22.60;14.77;;;;;;;7.39;69.88;102448.56;5085608;28;20106;-73
2022/03/15 07:07:06;;;;;;;21.75;13.23;;;;;;;7.38;69.43;102441.56;5079924;28;20028;-73
2022/03/15 07:09:32;;;;;;;18.98;13.02;;;;;;;7.45;69.47;102450.22;5092398;28;20111;-73
2022/03/15 07:12:00;;;;;;;20.70;13.10;;;;;;;7.44;69.56;102445.81;5082292;28;20062;-73
2022/03/15 07:14:26;;;;;;;18.48;12.93;;;;;;;7.44;69.28;102444.06;5072250;28;20028;-73
2022/03/15 07:16:51;;;;;;;19.60;13.75;;;;;;;7.53;69.03;102450.91;5052496;28;20074;-72
2022/03/15 07:19:17;;;;;;;16.60;12.90;;;;;;;7.49;69.18;102443.91;5106348;28;20348;-73
2022/03/15 07:21:45;;;;;;;22.45;12.77;;;;;;;7.51;69.29;102444.75;5075801;28;20027;-73
2022/03/15 07:24:10;;;;;;;20.02;13.05;;;;;;;7.54;69.05;102446.47;5096139;28;20397;-73
2022/03/15 07:26:36;;;;;;;18.58;11.85;;;;;;;7.55;68.64;102434.97;5071976;28;20034;-73
2022/03/15 07:29:02;;;;;;;21.33;12.77;;;;;;;7.56;68.85;102441.97;5097900;28;20089;-73
2022/03/15 07:31:28;;;;;;;15.07;12.32;;;;;;;7.62;68.69;102434.78;5105764;28;20016;-72
2022/03/15 07:33:53;;;;;;;16.70;12.30;;;;;;;7.65;68.50;102431.19;5097371;28;20592;-72
2022/03/15 07:36:19;;;;;;;23.20;12.48;;;;;;;7.64;68.39;102435.59;5094030;28;20427;-72
2022/03/15 07:38:45;;;;;;;15.98;11.75;;;;;;;7.55;68.24;102412.00;5081938;28;20028;-72
2022/03/15 07:41:11;;;;;;;18.90;11.70;;;;;;;7.64;68.16;102426.78;5097312;28;20414;-72
2022/03/15 07:43:37;;;;;;;19.40;10.25;;;;;;;7.65;68.12;102431.19;5059513;28;20124;-72
2022/03/15 07:46:02;;;;;;;18.40;11.38;;;;;;;7.64;67.81;102432.94;5076010;28;20060;-73
2022/03/15 07:48:28;;;;;;;20.70;11.20;;;;;;;7.61;68.00;102426.88;5076107;28;20455;-72
2022/03/15 07:50:56;;;;;;;14.18;10.57;;;;;;;7.61;68.14;102427.72;5078921;28;20036;-73
2022/03/15 07:53:22;;;;;;;22.20;11.85;;;;;;;7.64;68.03;102426.78;5086766;28;20485;-73
2022/03/15 07:55:48;;;;;;;19.15;12.05;;;;;;;7.64;68.33;102418.84;5114608;28;20034;-73
2022/03/15 07:58:13;;;;;;;19.95;11.80;;;;;;;7.68;67.79;102426.69;5114435;28;20035;-73
2022/03/15 08:00:39;;;;;;;15.02;10.60;;;;;;;7.71;67.64;102420.44;5094045;28;20038;-73
2022/03/15 08:03:05;;;;;;;22.15;11.80;;;;;;;7.78;67.62;102427.31;5094401;28;20048;-72
2022/03/15 08:05:31;;;;;;;22.13;10.82;;;;;;;7.78;67.14;102414.06;5093889;28;20458;-73
2022/03/15 08:07:57;;;;;;;21.83;11.50;;;;;;;7.82;67.39;102413.06;5087058;28;20055;-72
2022/03/15 08:10:22;;;;;;;16.45;10.70;;;;;;;7.81;67.02;102415.75;5096339;28;20024;-73
2022/03/15 08:12:48;;;;;;;21.17;10.63;;;;;;;7.78;67.27;102411.41;5093616;28;20042;-73
2022/03/15 08:15:13;;;;;;;15.95;10.20;;;;;;;7.80;66.99;102403.44;5093461;28;20789;-72
2022/03/15 08:17:40;;;;;;;22.08;9.82;;;;;;;7.85;66.67;102407.72;5097069;28;20039;-72
2022/03/15 08:20:06;;;;;;;21.42;11.02;;;;;;;7.87;66.65;102402.34;5095305;28;20027;-73
2022/03/15 08:22:32;;;;;;;17.63;9.40;;;;;;;7.88;66.68;102402.34;5075986;28;20024;-73
2022/03/15 08:24:58;;;;;;;13.15;9.40;;;;;;;7.91;66.28;102404.91;5076775;28;20023;-73
2022/03/15 08:27:25;;;;;;;15.52;8.50;;;;;;;7.95;66.49;102400.38;5113779;28;20019;-73
2022/03/15 08:29:51;;;;;;;14.65;9.35;;;;;;;8.02;66.54;102396.63;5110638;28;20024;-72
2022/03/15 08:32:17;;;;;;;18.02;9.48;;;;;;;8.05;66.51;102393.03;5105640;28;20504;-73
2022/03/15 08:34:45;;;;;;;18.83;9.48;;;;;;;8.11;66.23;102388.44;5113821;28;20160;-73
2022/03/15 08:37:13;;;;;;;18.55;8.25;;;;;;;8.15;65.84;102389.25;5095754;28;20275;-72
2022/03/15 08:39:39;;;;;;;20.80;9.15;;;;;;;8.15;65.61;102392.75;5105483;28;20106;-73
2022/03/15 08:42:05;;;;;;;20.85;8.90;;;;;;;8.15;65.36;102392.75;5093219;28;20173;-73
2022/03/15 08:44:30;;;;;;;19.48;8.98;;;;;;;8.19;65.44;102386.44;5074187;28;20035;-72
2022/03/15 08:46:56;;;;;;;17.88;8.98;;;;;;;8.25;65.09;102390.69;5078016;28;20115;-72
2022/03/15 08:49:22;;;;;;;15.40;8.60;;;;;;;8.31;64.97;102394.97;5087021;28;20554;-72
2022/03/15 08:51:50;;;;;;;14.77;8.00;;;;;;;8.31;65.06;102389.66;5076012;28;20036;-72
2022/03/15 08:54:18;;;;;;;19.92;9.20;;;;;;;8.38;64.96;102388.56;5105933;28;20106;-72
2022/03/15 08:56:44;;;;;;;20.45;8.50;;;;;;;8.35;64.83;102380.69;5059824;28;20395;-73
2022/03/15 08:59:12;;;;;;;17.17;8.20;;;;;;;8.43;65.05;102383.16;5094217;28;20015;-72
2022/03/15 09:01:38;;;;;;;18.08;8.70;;;;;;;8.45;64.63;102384.84;5084102;28;20029;-72
2022/03/15 09:04:03;;;;;;;14.02;8.35;;;;;;;8.48;64.82;102379.47;5113416;28;20031;-72
2022/03/15 09:06:29;;;;;;;19.50;8.77;;;;;;;8.52;64.53;102380.22;5094418;28;20027;-72
2022/03/15 09:08:55;;;;;;;15.52;8.52;;;;;;;8.51;64.64;102371.41;5092926;28;20051;-72
2022/03/15 09:11:22;;;;;;;16.95;8.70;;;;;;;8.53;64.33;102372.25;5074339;28;20390;-72
2022/03/15 09:13:47;;;;;;;14.40;8.77;;;;;;;8.58;64.52;102374.75;5074444;28;20131;-72
2022/03/15 09:16:13;;;;;;;14.38;8.48;;;;;;;8.60;64.46;102371.13;5112172;28;20028;-72
2022/03/15 09:18:39;;;;;;;17.23;8.55;;;;;;;8.55;63.82;102358.94;5087625;28;20051;-72
2022/03/15 09:21:06;;;;;;;15.38;8.98;;;;;;;8.58;64.23;102361.47;5074550;28;20039;-73
2022/03/15 09:23:32;;;;;;;16.65;8.00;;;;;;;8.68;64.49;102373.56;5074645;28;20019;-73
2022/03/15 09:25:58;;;;;;;15.45;8.18;;;;;;;8.73;63.78;102381.38;5092191;28;20019;-73
2022/03/15 09:28:23;;;;;;;16.73;8.60;;;;;;;8.78;63.82;102376.78;5090261;28;20031;-74
2022/03/15 09:30:49;;;;;;;15.13;7.95;;;;;;;8.79;63.69;102376.72;5094359;28;20031;-72
2022/03/15 09:33:15;;;;;;;15.82;8.98;;;;;;;8.81;63.63;102374.03;5094440;28;20755;-72
2022/03/15 09:35:41;;;;;;;16.67;8.27;;;;;;;8.85;64.07;102373.91;5094062;28;20023;-72
2022/03/15 09:38:07;;;;;;;16.52;8.50;;;;;;;8.94;63.95;102369.22;5112780;28;20016;-73
2022/03/15 09:40:33;;;;;;;17.63;8.20;;;;;;;8.98;63.54;102377.03;5112116;28;20046;-72
2022/03/15 09:43:01;;;;;;;18.67;8.73;;;;;;;9.01;63.43;102379.59;5094607;28;20107;-73
2022/03/15 09:45:31;;;;;;;15.27;8.43;;;;;;;9.01;63.19;102360.16;5111933;28;20020;-73
2022/03/15 09:47:59;;;;;;;11.52;7.57;;;;;;;9.07;63.03;102371.44;5098746;28;20032;-73
2022/03/15 09:50:25;;;;;;;13.48;7.97;;;;;;;9.15;62.59;102367.66;5092243;28;20035;-72
2022/03/15 09:52:56;;;;;;;15.80;8.57;;;;;;;9.20;62.30;102371.91;5074107;28;20370;-73
2022/03/15 09:55:22;;;;;;;16.13;7.57;;;;;;;9.21;62.49;102370.13;5073866;28;20031;-72
2022/03/15 09:57:48;;;;;;;13.73;7.88;;;;;;;9.22;62.21;102366.53;5075693;28;20043;-73
2022/03/15 10:00:16;;;;;;;14.40;7.15;;;;;;;9.25;62.28;102366.44;5090840;28;20502;-73
2022/03/15 10:02:45;;;;;;;13.52;7.53;;;;;;;9.30;62.72;102369.81;5074040;28;20042;-73
2022/03/15 10:05:12;;;;;;;14.82;8.50;;;;;;;9.36;62.30;102371.41;5091687;28;20098;-72
2022/03/15 10:07:38;;;;;;;17.08;8.23;;;;;;;9.39;61.76;102358.88;5104166;28;20513;-72
2022/03/15 10:10:06;;;;;;;18.85;8.63;;;;;;;9.35;61.58;102348.41;5112106;28;20060;-73
2022/03/15 10:12:32;;;;;;;15.40;7.80;;;;;;;9.46;61.67;102357.75;5112012;28;20027;-72
2022/03/15 10:14:58;;;;;;;20.08;8.95;;;;;;;9.50;61.75;102356.75;5111826;28;20390;-72
2022/03/15 10:17:24;;;;;;;15.85;8.02;;;;;;;9.60;61.57;102354.63;5103560;28;20024;-73
2022/03/15 10:19:52;;;;;;;18.38;8.65;;;;;;;9.67;61.30;102349.97;5076079;28;20126;-73
2022/03/15 10:22:24;;;;;;;19.35;9.15;;;;;;;9.74;61.34;102351.50;5081524;28;20466;-73
2022/03/15 10:24:50;;;;;;;15.13;7.68;;;;;;;9.82;61.11;102349.41;5112265;28;20028;-73
2022/03/15 10:27:16;;;;;;;14.23;8.07;;;;;;;9.86;60.71;102343.09;5109456;28;20031;-72
2022/03/15 10:29:43;;;;;;;14.75;8.00;;;;;;;9.88;60.39;102343.91;5077848;28;20028;-72
2022/03/15 10:32:09;;;;;;;16.60;7.97;;;;;;;9.86;60.09;102340.44;5072859;28;20065;-72
2022/03/15 10:34:36;;;;;;;17.65;8.25;;;;;;;9.86;60.67;102343.09;5073286;28;20020;-73
2022/03/15 10:37:03;;;;;;;13.00;8.00;;;;;;;9.88;61.06;102335.94;5093313;28;20431;-72
2022/03/15 10:39:31;;;;;;;19.20;8.07;;;;;;;9.96;60.79;102332.97;5073204;28;20035;-73
2022/03/15 10:42:01;;;;;;;11.35;7.30;;;;;;;10.04;61.14;102328.25;5109265;28;20028;-73
2022/03/15 10:44:28;;;;;;;;;;;;;;;10.17;61.32;102323.34;5112120;28;20028;-73
2022/03/15 10:47:15;;;;;;;15.13;6.88;;;;;;;10.15;60.87;102319.88;5110649;28;20368;-73
2022/03/15 10:50:03;;;;;;;13.27;7.78;;;;;;;10.23;60.54;102326.66;5093950;28;20038;-72
2022/03/15 10:52:41;;;;;;;12.65;7.63;;;;;;;10.20;60.62;102316.09;5109256;28;20027;-73
2022/03/15 10:55:11;;;;;;;14.90;7.47;;;;;;;10.25;60.49;102323.91;5102867;28;20040;-73
2022/03/15 10:58:00;;;;;;;10.68;7.70;;;;;;;10.29;61.37;102308.75;5092475;28;20115;-73
2022/03/15 11:00:28;;;;;;;13.27;7.70;;;;;;;10.24;60.88;102306.25;5092017;28;20031;-72
2022/03/15 11:02:57;;;;;;;11.18;7.40;;;;;;;10.21;61.00;102311.69;5096199;28;20020;-73
2022/03/15 11:05:31;;;;;;;15.23;8.27;;;;;;;10.28;61.32;102301.69;5099060;28;20489;-73
2022/03/15 11:07:57;;;;;;;12.40;7.32;;;;;;;10.33;60.79;102307.72;5101008;28;20071;-73
2022/03/15 11:10:23;;;;;;;15.15;7.82;;;;;;;10.39;60.67;102303.03;5102836;28;20042;-73
2022/03/15 11:13:02;;;;;;;15.43;8.15;;;;;;;10.40;61.17;102290.59;5104407;28;20078;-72
2022/03/15 11:15:30;;;;;;;14.00;7.53;;;;;;;10.50;60.39;102299.06;5095284;28;20023;-72
2022/03/15 11:18:01;;;;;;;14.05;7.65;;;;;;;10.57;60.68;102296.09;5077211;28;20077;-73